createdAt,value
2018-09-05T00:00:01.650Z,15.63
2018-09-05T00:02:30.428Z,15.70
2018-09-05T00:04:59.217Z,17.03
2018-09-05T00:07:27.956Z,14.40
2018-09-05T00:09:56.681Z,16.27
2018-09-05T00:12:25.418Z,16.73
2018-09-05T00:14:54.224Z,16.67
2018-09-05T00:17:22.972Z,17.10
2018-09-05T00:19:51.770Z,17.07
2018-09-05T00:22:20.614Z,16.43
2018-09-05T00:24:49.353Z,16.07
2018-09-05T00:27:18.138Z,17.30
2018-09-05T00:29:46.901Z,15.73
2018-09-05T00:32:15.670Z,17.00
2018-09-05T00:34:44.380Z,16.67
2018-09-05T00:37:13.314Z,17.60
2018-09-05T00:39:42.065Z,15.80
2018-09-05T00:42:10.852Z,15.20
2018-09-05T00:44:39.574Z,16.20
2018-09-05T00:47:08.298Z,16.40
2018-09-05T00:49:37.009Z,16.70
2018-09-05T00:52:05.800Z,15.17
2018-09-05T00:54:34.536Z,16.37
2018-09-05T00:57:03.262Z,15.23
2018-09-05T00:59:31.987Z,15.73
2018-09-05T01:02:00.649Z,16.73
2018-09-05T01:04:29.381Z,15.60
2018-09-05T01:06:58.200Z,15.83
2018-09-05T01:09:26.931Z,14.57
2018-09-05T01:12:01.703Z,15.27
2018-09-05T01:14:35.558Z,15.40
2018-09-05T01:17:09.899Z,16.20
2018-09-05T01:19:44.656Z,15.60
2018-09-05T01:22:17.800Z,16.07
2018-09-05T01:24:52.013Z,15.47
2018-09-05T01:27:25.553Z,15.07
2018-09-05T01:29:59.718Z,17.20
2018-09-05T01:32:33.709Z,16.63
2018-09-05T01:35:06.714Z,17.00
2018-09-05T01:37:39.649Z,16.53
2018-09-05T01:40:16.653Z,16.83
2018-09-05T01:42:53.103Z,15.37
2018-09-05T01:45:26.315Z,17.05
2018-09-05T01:47:59.735Z,15.07
2018-09-05T01:50:36.904Z,16.20
2018-09-05T01:53:11.285Z,16.90
2018-09-05T01:55:45.280Z,16.37
2018-09-05T01:58:18.972Z,17.27
2018-09-05T02:00:52.432Z,17.40
2018-09-05T02:03:26.564Z,16.15
2018-09-05T02:05:59.822Z,15.47
2018-09-05T02:08:33.691Z,16.57
2018-09-05T02:11:07.013Z,16.40
2018-09-05T02:13:40.145Z,17.20
2018-09-05T02:16:13.290Z,18.32
2018-09-05T02:18:47.935Z,17.27
2018-09-05T02:21:20.907Z,16.50
2018-09-05T02:23:53.801Z,18.30
2018-09-05T02:26:26.606Z,17.10
2018-09-05T02:29:02.845Z,16.23
2018-09-05T02:31:36.833Z,16.20
2018-09-05T02:34:11.994Z,17.30
2018-09-05T02:36:45.762Z,16.80
2018-09-05T02:39:23.379Z,16.60
2018-09-05T02:41:57.694Z,17.87
2018-09-05T02:44:30.982Z,16.85
2018-09-05T02:47:04.496Z,17.30
2018-09-05T02:49:38.466Z,16.25
2018-09-05T02:52:12.749Z,17.30
2018-09-05T02:54:46.826Z,17.30
2018-09-05T02:57:19.714Z,17.23
2018-09-05T02:59:52.643Z,15.80
2018-09-05T03:02:25.410Z,18.17
2018-09-05T03:04:59.211Z,16.35
2018-09-05T03:07:31.930Z,16.67
2018-09-05T03:10:13.432Z,18.50
2018-09-05T03:12:46.245Z,17.23
2018-09-05T03:15:17.694Z,17.67
2018-09-05T03:17:50.364Z,17.05
2018-09-05T03:20:23.084Z,16.65
2018-09-05T03:22:55.497Z,17.20
2018-09-05T03:25:27.823Z,17.52
2018-09-05T03:28:00.471Z,17.57
2018-09-05T03:30:32.707Z,16.90
2018-09-05T03:33:05.383Z,16.77
2018-09-05T03:35:38.180Z,17.87
2018-09-05T03:38:10.647Z,15.95
2018-09-05T03:40:44.276Z,16.10
2018-09-05T03:43:14.238Z,17.02
2018-09-05T03:45:44.728Z,17.02
2018-09-05T03:48:16.228Z,17.57
2018-09-05T03:50:48.210Z,18.17
2018-09-05T03:53:19.033Z,19.80
2018-09-05T03:55:52.707Z,18.50
2018-09-05T03:58:25.271Z,17.23
2018-09-05T04:00:56.996Z,17.60
2018-09-05T04:03:30.058Z,18.30
2018-09-05T04:05:58.890Z,16.70
2018-09-05T04:08:27.662Z,19.32
2018-09-05T04:10:56.398Z,19.10
2018-09-05T04:13:25.219Z,16.17
2018-09-05T04:15:53.998Z,18.32
2018-09-05T04:18:22.738Z,17.80
2018-09-05T04:20:51.722Z,17.95
2018-09-05T04:23:20.456Z,19.30
2018-09-05T04:25:49.213Z,19.23
2018-09-05T04:28:17.932Z,19.30
2018-09-05T04:30:46.661Z,18.52
2018-09-05T04:33:15.467Z,17.57
2018-09-05T04:35:44.294Z,17.87
2018-09-05T04:38:13.061Z,17.05
2018-09-05T04:40:41.904Z,18.37
2018-09-05T04:43:10.692Z,19.02
2018-09-05T04:45:39.457Z,19.95
2018-09-05T04:48:08.156Z,20.05
2018-09-05T04:50:37.051Z,20.10
2018-09-05T04:53:05.927Z,20.90
2018-09-05T04:55:34.830Z,18.95
2018-09-05T04:58:03.564Z,21.02
2018-09-05T05:00:32.297Z,18.95
2018-09-05T05:03:01.204Z,19.95
2018-09-05T05:05:30.006Z,20.08
2018-09-05T05:07:58.840Z,20.82
2018-09-05T05:10:27.547Z,19.77
2018-09-05T05:12:56.404Z,21.50
2018-09-05T05:15:25.167Z,20.08
2018-09-05T05:17:53.946Z,19.35
2018-09-05T05:20:22.811Z,20.92
2018-09-05T05:22:51.597Z,19.70
2018-09-05T05:25:20.313Z,19.95
2018-09-05T05:27:49.097Z,20.77
2018-09-05T05:30:17.837Z,22.05
2018-09-05T05:32:46.715Z,21.52
2018-09-05T05:35:15.438Z,20.77
2018-09-05T05:37:44.227Z,21.62
2018-09-05T05:40:12.972Z,21.48
2018-09-05T05:42:41.776Z,22.42
2018-09-05T05:45:10.529Z,21.33
2018-09-05T05:47:39.218Z,21.68
2018-09-05T05:50:08.125Z,22.73
2018-09-05T05:52:36.845Z,23.27
2018-09-05T05:55:05.707Z,23.25
2018-09-05T05:57:34.382Z,23.42
2018-09-05T06:00:03.105Z,21.75
2018-09-05T06:02:31.939Z,23.92
2018-09-05T06:05:00.667Z,27.65
2018-09-05T06:07:29.423Z,28.00
2018-09-05T06:09:58.171Z,24.10
2018-09-05T06:12:26.968Z,22.37
2018-09-05T06:14:55.699Z,23.25
2018-09-05T06:17:24.481Z,22.10
2018-09-05T06:19:53.220Z,22.75
2018-09-05T06:22:22.072Z,23.42
2018-09-05T06:24:50.824Z,24.37
2018-09-05T06:27:19.605Z,22.00
2018-09-05T06:29:48.450Z,25.60
2018-09-05T06:32:17.205Z,24.07
2018-09-05T06:34:45.987Z,24.33
2018-09-05T06:37:14.719Z,24.43
2018-09-05T06:39:44.312Z,29.40
2018-09-05T06:42:14.496Z,30.37
2018-09-05T06:44:43.320Z,29.73
2018-09-05T06:47:12.073Z,29.80
2018-09-05T06:49:40.957Z,30.73
2018-09-05T06:52:09.742Z,31.07
2018-09-05T06:54:38.552Z,30.10
2018-09-05T06:57:07.323Z,29.07
2018-09-05T06:59:36.186Z,27.10
2018-09-05T07:02:05.218Z,27.17
2018-09-05T07:04:34.006Z,30.00
2018-09-05T07:07:02.946Z,28.87
2018-09-05T07:09:31.941Z,27.07
2018-09-05T07:12:01.252Z,28.80
2018-09-05T07:14:30.049Z,34.83
2018-09-05T07:16:58.799Z,35.83
2018-09-05T07:19:27.684Z,34.67
2018-09-05T07:22:01.627Z,31.60
2018-09-05T07:24:30.309Z,29.30
2018-09-05T07:26:59.076Z,29.60
2018-09-05T07:29:27.821Z,27.97
2018-09-05T07:31:56.631Z,28.77
2018-09-05T07:34:25.412Z,30.00
2018-09-05T07:36:54.233Z,30.87
2018-09-05T07:39:22.954Z,28.93
2018-09-05T07:41:51.915Z,30.30
2018-09-05T07:44:20.747Z,30.10
2018-09-05T07:46:49.537Z,27.73
2018-09-05T07:49:21.029Z,31.90
2018-09-05T07:51:49.821Z,28.40
2018-09-05T07:54:18.581Z,29.80
2018-09-05T07:56:47.341Z,29.00
2018-09-05T07:59:16.262Z,28.77
2018-09-05T08:01:45.038Z,27.33
2018-09-05T08:04:13.838Z,26.83
2018-09-05T08:06:44.364Z,29.67
2018-09-05T08:09:13.148Z,27.80
2018-09-05T08:11:41.991Z,29.80
2018-09-05T08:14:10.849Z,29.80
2018-09-05T08:16:39.640Z,27.27
2018-09-05T08:19:08.437Z,30.30
2018-09-05T08:21:37.312Z,29.10
2018-09-05T08:24:06.156Z,28.63
2018-09-05T08:26:34.936Z,26.50
2018-09-05T08:29:03.816Z,27.87
2018-09-05T08:31:32.587Z,25.70
2018-09-05T08:34:01.389Z,26.00
2018-09-05T08:36:30.332Z,26.10
2018-09-05T08:38:59.409Z,27.17
2018-09-05T08:41:28.526Z,24.77
2018-09-05T08:43:59.399Z,26.63
2018-09-05T08:46:29.504Z,26.77
2018-09-05T08:48:58.871Z,25.03
2018-09-05T08:51:29.067Z,24.50
2018-09-05T08:54:01.325Z,23.70
2018-09-05T08:56:31.004Z,23.80
2018-09-05T08:59:00.842Z,22.00
2018-09-05T09:01:31.669Z,22.07
2018-09-05T09:04:00.508Z,21.23
2018-09-05T09:06:31.663Z,22.93
2018-09-05T09:09:01.352Z,22.30
2018-09-05T09:11:32.886Z,21.70
2018-09-05T09:14:06.801Z,21.87
2018-09-05T09:16:35.777Z,23.73
2018-09-05T09:19:04.841Z,22.10
2018-09-05T09:21:33.703Z,22.50
2018-09-05T09:24:24.227Z,23.20
2018-09-05T09:26:53.474Z,21.00
2018-09-05T09:29:22.352Z,20.10
2018-09-05T09:31:51.182Z,22.00
2018-09-05T09:34:19.993Z,22.20
2018-09-05T09:36:48.783Z,20.50
2018-09-05T09:39:17.589Z,21.37
2018-09-05T09:41:46.286Z,22.87
2018-09-05T09:44:15.057Z,24.63
2018-09-05T09:46:43.858Z,24.63
2018-09-05T09:49:12.444Z,22.53
2018-09-05T09:51:41.217Z,22.27
2018-09-05T09:54:10.001Z,19.73
2018-09-05T09:56:38.852Z,21.60
2018-09-05T09:59:07.526Z,22.93
2018-09-05T10:01:41.605Z,22.47
2018-09-05T10:04:16.011Z,23.97
2018-09-05T10:06:54.999Z,22.73
2018-09-05T10:11:32.782Z,20.60
2018-09-05T10:14:06.741Z,23.87
2018-09-05T10:16:44.796Z,25.00
2018-09-05T10:19:13.817Z,25.60
2018-09-05T10:21:42.624Z,22.83
2018-09-05T10:24:11.369Z,20.13
2018-09-05T10:26:40.094Z,22.23
2018-09-05T10:29:08.907Z,22.20
2018-09-05T10:31:38.675Z,19.47
2018-09-05T10:34:07.913Z,20.47
2018-09-05T10:36:36.727Z,20.97
2018-09-05T10:39:08.178Z,19.90
2018-09-05T10:41:36.913Z,21.60
2018-09-05T10:44:06.054Z,19.10
2018-09-05T10:46:35.022Z,20.03
2018-09-05T10:49:03.895Z,22.73
2018-09-05T10:51:37.992Z,23.30
2018-09-05T10:54:07.024Z,18.70
2018-09-05T10:56:36.480Z,19.53
2018-09-05T10:59:05.282Z,21.03
2018-09-05T11:01:33.988Z,20.93
2018-09-05T11:04:02.829Z,22.50
2018-09-05T11:06:31.544Z,19.30
2018-09-05T11:09:00.302Z,17.70
2018-09-05T11:11:29.085Z,17.20
2018-09-05T11:13:57.750Z,19.03
2018-09-05T11:16:26.558Z,17.80
2018-09-05T11:18:55.256Z,17.10
2018-09-05T11:21:27.167Z,15.40
2018-09-05T11:23:57.587Z,16.37
2018-09-05T11:26:26.343Z,16.53
2018-09-05T11:28:55.223Z,15.53
2018-09-05T11:31:23.949Z,16.83
2018-09-05T11:33:52.672Z,15.50
2018-09-05T11:36:21.653Z,18.80
2018-09-05T11:38:50.550Z,13.80
2018-09-05T11:41:19.389Z,16.33
2018-09-05T11:43:48.512Z,17.10
2018-09-05T11:46:17.245Z,16.87
2018-09-05T11:48:46.008Z,20.10
2018-09-05T11:51:15.034Z,18.57
2018-09-05T11:53:43.747Z,16.90
2018-09-05T11:56:12.514Z,16.40
2018-09-05T11:58:41.210Z,16.27
2018-09-05T12:01:09.959Z,18.37
2018-09-05T12:03:38.623Z,17.00
2018-09-05T12:06:07.542Z,15.60
2018-09-05T12:08:36.394Z,16.30
2018-09-05T12:11:05.060Z,15.37
2018-09-05T12:13:33.774Z,16.03
2018-09-05T12:16:02.588Z,16.40
2018-09-05T12:18:31.365Z,16.77
2018-09-05T12:21:00.015Z,15.20
2018-09-05T12:23:29.074Z,15.60
2018-09-05T12:25:57.794Z,16.03
2018-09-05T12:28:26.542Z,15.43
2018-09-05T12:30:55.299Z,15.30
2018-09-05T12:33:24.053Z,16.00
2018-09-05T12:35:52.811Z,17.07
2018-09-05T12:38:21.576Z,16.40
2018-09-05T12:40:50.183Z,14.40
2018-09-05T12:43:18.918Z,15.07
2018-09-05T12:45:47.655Z,15.50
2018-09-05T12:48:18.516Z,15.50
2018-09-05T12:50:47.363Z,14.57
2018-09-05T12:53:16.051Z,15.17
2018-09-05T12:56:19.854Z,14.47
2018-09-05T12:58:48.605Z,16.80
2018-09-05T13:01:17.472Z,15.07
2018-09-05T13:03:46.217Z,14.63
2018-09-05T13:06:14.941Z,15.47
2018-09-05T13:08:43.745Z,14.53
2018-09-05T13:11:12.551Z,14.90
2018-09-05T13:13:41.499Z,15.50
2018-09-05T13:16:10.338Z,15.10
2018-09-05T13:18:39.120Z,14.40
2018-09-05T13:21:07.907Z,14.93
2018-09-05T13:23:36.662Z,15.20
2018-09-05T13:26:05.450Z,14.00
2018-09-05T13:28:34.194Z,14.10
2018-09-05T13:31:02.887Z,13.67
2018-09-05T13:33:31.654Z,13.00
2018-09-05T13:36:00.474Z,12.97
2018-09-05T13:38:31.369Z,14.33
2018-09-05T13:41:02.350Z,12.93
2018-09-05T13:43:31.114Z,12.93
2018-09-05T13:45:59.873Z,13.97
2018-09-05T13:48:28.685Z,13.73
2018-09-05T13:50:57.528Z,15.03
2018-09-05T13:53:26.261Z,14.33
2018-09-05T13:55:55.193Z,14.37
2018-09-05T13:58:23.946Z,13.20
2018-09-05T14:00:52.721Z,13.93
2018-09-05T14:03:21.585Z,13.70
2018-09-05T14:05:50.458Z,13.20
2018-09-05T14:08:19.282Z,12.57
2018-09-05T14:10:48.245Z,13.07
2018-09-05T14:13:16.973Z,13.37
2018-09-05T14:15:45.711Z,13.77
2018-09-05T14:18:14.657Z,13.70
2018-09-05T14:20:43.469Z,13.00
2018-09-05T14:23:12.197Z,14.03
2018-09-05T14:25:40.878Z,13.70
2018-09-05T14:28:09.719Z,13.83
2018-09-05T14:30:38.512Z,14.20
2018-09-05T14:33:06.892Z,14.80
2018-09-05T14:35:35.672Z,13.43
2018-09-05T14:38:04.450Z,14.13
2018-09-05T14:40:33.345Z,14.77
2018-09-05T14:43:02.173Z,14.10
2018-09-05T14:45:31.113Z,14.60
2018-09-05T14:47:59.898Z,13.30
2018-09-05T14:50:28.637Z,12.97
2018-09-05T14:52:57.312Z,14.13
2018-09-05T14:55:26.003Z,15.10
2018-09-05T14:57:54.755Z,14.03
2018-09-05T15:00:23.494Z,15.83
2018-09-05T15:02:52.254Z,15.00
2018-09-05T15:05:20.954Z,16.00
2018-09-05T15:07:50.693Z,14.83
2018-09-05T15:10:19.451Z,17.17
2018-09-05T15:12:48.218Z,12.13
2018-09-05T15:15:17.406Z,14.73
2018-09-05T15:17:46.267Z,14.30
2018-09-05T15:20:15.117Z,12.30
2018-09-05T15:22:44.849Z,13.70
2018-09-05T15:25:13.576Z,14.53
2018-09-05T15:27:42.282Z,13.00
2018-09-05T15:30:11.186Z,12.87
2018-09-05T15:32:39.932Z,13.47
2018-09-05T15:35:08.673Z,14.20
2018-09-05T15:37:37.372Z,13.50
2018-09-05T15:40:06.318Z,12.53
2018-09-05T15:42:35.061Z,12.70
2018-09-05T15:45:03.828Z,12.47
2018-09-05T15:47:32.676Z,13.30
2018-09-05T15:50:01.449Z,13.90
2018-09-05T15:52:30.162Z,13.07
2018-09-05T15:54:58.947Z,13.20
2018-09-05T15:57:27.804Z,12.73
2018-09-05T15:59:56.524Z,12.73
2018-09-05T16:02:25.277Z,12.67
2018-09-05T16:04:54.059Z,12.97
2018-09-05T16:07:22.834Z,12.73
2018-09-05T16:09:51.601Z,13.27
2018-09-05T16:12:20.410Z,13.07
2018-09-05T16:14:49.221Z,13.07
2018-09-05T16:17:18.027Z,12.30
2018-09-05T16:19:46.800Z,13.30
2018-09-05T16:22:15.765Z,12.60
2018-09-05T16:24:44.409Z,13.77
2018-09-05T16:27:13.101Z,12.67
2018-09-05T16:29:41.919Z,11.80
2018-09-05T16:32:10.600Z,13.10
2018-09-05T16:34:39.284Z,13.70
2018-09-05T16:37:07.953Z,12.50
2018-09-05T16:39:36.685Z,12.67
2018-09-05T16:42:05.442Z,12.93
2018-09-05T16:44:34.144Z,11.97
2018-09-05T16:47:02.845Z,13.90
2018-09-05T16:49:31.754Z,10.63
2018-09-05T16:52:00.410Z,12.80
2018-09-05T16:54:29.159Z,13.37
2018-09-05T16:56:57.887Z,12.40
2018-09-05T16:59:26.617Z,13.37
2018-09-05T17:01:55.341Z,12.90
2018-09-05T17:04:24.040Z,12.03
2018-09-05T17:06:52.856Z,13.83
2018-09-05T17:09:21.570Z,12.70
2018-09-05T17:11:50.341Z,12.53
2018-09-05T17:14:19.027Z,12.07
2018-09-05T17:16:47.689Z,14.20
2018-09-05T17:19:16.433Z,13.07
2018-09-05T17:21:45.130Z,13.27
2018-09-05T17:24:13.849Z,13.47
2018-09-05T17:26:42.542Z,13.47
2018-09-05T17:29:11.229Z,13.93
2018-09-05T17:31:40.081Z,13.10
2018-09-05T17:34:09.033Z,12.90
2018-09-05T17:36:37.775Z,12.70
2018-09-05T17:39:08.861Z,13.80
2018-09-05T17:41:37.605Z,13.30
2018-09-05T17:44:06.696Z,11.73
2018-09-05T17:46:35.484Z,14.10
2018-09-05T17:49:04.355Z,15.10
2018-09-05T17:51:33.219Z,12.70
2018-09-05T17:54:02.103Z,12.00
2018-09-05T17:56:30.921Z,13.60
2018-09-05T17:59:05.048Z,14.53
2018-09-05T18:01:34.019Z,14.90
2018-09-05T18:04:02.701Z,13.83
2018-09-05T18:06:31.603Z,14.73
2018-09-05T18:09:00.339Z,15.27
2018-09-05T18:11:29.050Z,13.90
2018-09-05T18:13:57.757Z,15.27
2018-09-05T18:16:26.487Z,15.50
2018-09-05T18:18:55.284Z,14.30
2018-09-05T18:21:24.069Z,15.70
2018-09-05T18:23:54.437Z,14.90
2018-09-05T18:26:23.283Z,13.80
2018-09-05T18:28:52.109Z,14.37
2018-09-05T18:31:20.952Z,14.33
2018-09-05T18:33:51.893Z,15.10
2018-09-05T18:36:22.791Z,15.47
2018-09-05T18:38:51.574Z,15.60
2018-09-05T18:41:20.300Z,15.37
2018-09-05T18:43:49.063Z,15.03
2018-09-05T18:46:17.734Z,14.73
2018-09-05T18:48:46.439Z,14.80
2018-09-05T18:51:15.187Z,16.33
2018-09-05T18:53:43.885Z,14.60
2018-09-05T18:56:12.651Z,15.03
2018-09-05T18:58:41.401Z,15.10
2018-09-05T19:01:10.152Z,15.80
2018-09-05T19:03:38.980Z,15.73
2018-09-05T19:06:07.691Z,15.67
2018-09-05T19:08:36.509Z,15.90
2018-09-05T19:11:05.319Z,14.13
2018-09-05T19:13:34.125Z,16.10
2018-09-05T19:16:02.974Z,15.63
2018-09-05T19:18:31.799Z,15.00
2018-09-05T19:21:00.539Z,15.50
2018-09-05T19:23:29.401Z,15.50
2018-09-05T19:25:58.128Z,16.47
2018-09-05T19:28:26.931Z,16.33
2018-09-05T19:30:55.649Z,16.40
2018-09-05T19:33:24.403Z,16.17
2018-09-05T19:35:53.104Z,15.80
2018-09-05T19:38:21.829Z,17.03
2018-09-05T19:40:50.562Z,18.30
2018-09-05T19:43:19.268Z,17.30
2018-09-05T19:45:48.038Z,16.33
2018-09-05T19:48:16.791Z,17.07
2018-09-05T19:50:45.609Z,17.53
2018-09-05T19:53:14.400Z,16.83
2018-09-05T19:55:43.199Z,17.00
2018-09-05T19:58:11.901Z,18.87
2018-09-05T20:00:40.611Z,16.90
2018-09-05T20:03:14.686Z,17.40
2018-09-05T20:05:48.600Z,18.00
2018-09-05T20:08:17.318Z,18.23
2018-09-05T20:10:45.963Z,17.07
2018-09-05T20:13:14.812Z,17.80
2018-09-05T20:15:43.598Z,18.60
2018-09-05T20:18:12.578Z,17.67
2018-09-05T20:20:41.342Z,17.00
2018-09-05T20:23:10.185Z,18.43
2018-09-05T20:25:38.950Z,15.80
2018-09-05T20:28:07.736Z,15.90
2018-09-05T20:30:36.457Z,17.97
2018-09-05T20:33:05.287Z,16.83
2018-09-05T20:35:33.975Z,17.40
2018-09-05T20:38:02.785Z,19.53
2018-09-05T20:40:31.498Z,21.53
2018-09-05T20:43:00.220Z,18.90
2018-09-05T20:45:28.950Z,17.23
2018-09-05T20:47:57.755Z,19.93
2018-09-05T20:50:26.466Z,18.17
2018-09-05T20:52:55.161Z,18.27
2018-09-05T20:55:23.907Z,18.07
2018-09-05T20:57:52.629Z,17.63
2018-09-05T21:00:21.372Z,17.77
2018-09-05T21:02:50.021Z,17.37
2018-09-05T21:05:18.745Z,18.57
2018-09-05T21:07:47.453Z,18.87
2018-09-05T21:10:16.163Z,18.80
2018-09-05T21:12:44.916Z,18.10
2018-09-05T21:15:13.701Z,18.30
2018-09-05T21:17:42.445Z,18.10
2018-09-05T21:20:11.206Z,19.17
2018-09-05T21:22:39.934Z,19.10
2018-09-05T21:25:08.700Z,17.90
2018-09-05T21:27:37.405Z,19.63
2018-09-05T21:30:06.121Z,19.00
2018-09-05T21:32:34.834Z,20.23
2018-09-05T21:35:03.597Z,20.07
2018-09-05T21:37:32.314Z,20.17
2018-09-05T21:40:01.134Z,18.87
2018-09-05T21:42:29.873Z,19.60
2018-09-05T21:44:58.622Z,20.33
2018-09-05T21:47:27.370Z,20.23
2018-09-05T21:49:56.146Z,19.63
2018-09-05T21:52:24.859Z,19.93
2018-09-05T21:54:53.619Z,19.43
2018-09-05T21:57:22.288Z,19.03
2018-09-05T21:59:51.013Z,19.93
2018-09-05T22:02:19.700Z,19.80
2018-09-05T22:04:48.366Z,19.00
2018-09-05T22:07:17.086Z,19.53
2018-09-05T22:09:45.749Z,19.73
2018-09-05T22:12:23.056Z,20.10
2018-09-05T22:14:51.702Z,20.27
2018-09-05T22:17:20.448Z,19.03
2018-09-05T22:19:49.097Z,17.93
2018-09-05T22:22:17.849Z,16.63
2018-09-05T22:24:46.606Z,20.13
2018-09-05T22:27:15.317Z,19.30
2018-09-05T22:29:44.047Z,20.13
2018-09-05T22:32:12.812Z,19.00
2018-09-05T22:34:41.512Z,20.10
2018-09-05T22:37:10.183Z,20.30
2018-09-05T22:39:38.925Z,20.33
2018-09-05T22:42:07.633Z,21.00
2018-09-05T22:44:47.398Z,19.20
2018-09-05T22:47:27.307Z,21.17
2018-09-05T22:50:15.129Z,20.30
2018-09-05T22:55:00.778Z,19.57
2018-09-05T22:58:03.485Z,19.83
2018-09-05T23:00:43.635Z,21.67
2018-09-05T23:03:23.387Z,19.57
2018-09-05T23:07:04.654Z,20.87
2018-09-05T23:09:44.596Z,19.97
2018-09-05T23:12:26.459Z,21.10
2018-09-05T23:15:07.072Z,19.70
2018-09-05T23:19:53.411Z,20.90
2018-09-05T23:22:22.253Z,20.30
2018-09-05T23:24:50.935Z,19.87
2018-09-05T23:27:19.695Z,21.03
2018-09-05T23:29:48.438Z,21.27
2018-09-05T23:32:17.143Z,21.90
2018-09-05T23:34:45.834Z,20.57
2018-09-05T23:37:14.577Z,21.50
2018-09-05T23:39:43.266Z,19.93
2018-09-05T23:42:12.007Z,18.60
2018-09-05T23:44:40.687Z,20.73
2018-09-05T23:47:09.440Z,19.70
2018-09-05T23:49:38.113Z,18.47
2018-09-05T23:52:06.869Z,21.60
2018-09-05T23:54:35.603Z,22.17
2018-09-05T23:57:04.370Z,21.23
2018-09-05T23:59:33.068Z,20.10
